Time;durP1;ratioP1;P1;durP2;ratioP2;P2;SDS_P1;SDS_P2;PMS_P1;PMS_P2;Temp;Humidity;BMP_temperature;BMP_pressure;BME280_temperature;BME280_humidity;BME280_pressure;Samples;Min_cycle;Max_cycle;Signal;HPM_P1;HPM_P2
2023/11/25 00:02:11;;;;;;;;;;;;;;;0.08;100.00;100815.00;6224565;23;19912;-77
2023/11/25 00:04:36;;;;;;;;;;;;;;;0.14;100.00;100808.34;6223850;23;19919;-77
2023/11/25 00:07:01;;;;;;;;;;;;;;;0.17;100.00;100807.28;6220269;23;20322;-77
2023/11/25 00:09:26;;;;;;;;;;;;;;;0.20;100.00;100818.44;6219126;23;19919;-76
2023/11/25 00:11:52;;;;;;;;;;;;;;;0.17;100.00;100807.28;6218421;23;19944;-76
2023/11/25 00:14:17;;;;;;;;;;;;;;;0.30;100.00;100802.59;6219499;23;19916;-77
2023/11/25 00:16:42;;;;;;;;;;;;;;;0.24;100.00;100808.41;6216732;23;19919;-76
2023/11/25 00:19:07;;;;;;;;;;;;;;;0.36;100.00;100804.69;6218461;23;19916;-77
2023/11/25 00:21:32;;;;;;;;;;;;;;;0.30;100.00;100813.19;6219131;23;19923;-77
2023/11/25 00:23:58;;;;;;;;;;;;;;;0.17;100.00;100821.31;6218259;23;19935;-76
2023/11/25 00:26:26;;;;;;;;;;;;;;;0.10;100.00;100813.06;6218742;23;19916;-76
2023/11/25 00:28:51;;;;;;;;;;;;;;;0.18;100.00;100819.53;6220620;23;19919;-77
2023/11/25 00:31:16;;;;;;;;;;;;;;;0.12;100.00;100808.50;6219925;23;19947;-77
2023/11/25 00:33:42;;;;;;;;;;;;;;;0.10;100.00;100814.88;6223910;23;19912;-77
2023/11/25 00:36:07;;;;;;;;;;;;;;;0.03;100.00;100805.78;6221084;23;20691;-76
2023/11/25 00:38:33;;;;;;;;;;;;;;;-0.09;100.00;100808.47;6217839;23;20376;-77
2023/11/25 00:40:58;;;;;;;;;;;;;;;-0.10;100.00;100808.59;6217631;23;19912;-77
2023/11/25 00:43:23;;;;;;;;;;;;;;;-0.01;100.00;100799.91;6219733;23;19911;-76
2023/11/25 00:45:49;;;;;;;;;;;;;;;-0.03;100.00;100802.66;6218601;23;19912;-77
2023/11/25 00:48:17;;;;;;;;;;;;;;;0.07;100.00;100797.44;6215563;23;19934;-77
2023/11/25 00:50:42;;;;;;;;;;;;;;;0.11;100.00;100798.00;6215679;23;19923;-77
2023/11/25 00:53:08;;;;;;;;;;;;;;;0.04;100.00;100813.56;6216121;23;19916;-77
2023/11/25 00:55:33;;;;;;;;;;;;;;;-0.24;100.00;100815.91;6215306;23;19912;-77
2023/11/25 00:57:58;;;;;;;;;;;;;;;-0.42;100.00;100818.25;6216997;23;19912;-76
2023/11/25 01:00:26;;;;;;;;;;;;;;;-0.47;100.00;100813.34;6216755;23;19912;-77
2023/11/25 01:02:51;;;;;;;;;;;;;;;-0.41;100.00;100816.44;6223405;23;19915;-77
2023/11/25 01:05:16;;;;;;;;;;;;;;;-0.29;100.00;100822.53;6217561;23;19950;-77
2023/11/25 01:07:42;;;;;;;;;;;;;;;-0.33;100.00;100814.00;6215722;23;20007;-77
2023/11/25 01:10:07;;;;;;;;;;;;;;;-0.31;100.00;100817.34;6219776;23;19999;-77
2023/11/25 01:12:34;;;;;;;;;;;;;;;-0.29;100.00;100812.78;6218552;23;19912;-76
2023/11/25 01:15:00;;;;;;;;;;;;;;;-0.28;100.00;100814.47;6214740;23;19961;-76
2023/11/25 01:17:26;;;;;;;;;;;;;;;-0.25;100.00;100823.94;6214922;23;19947;-77
2023/11/25 01:19:52;;;;;;;;;;;;;;;-0.32;100.00;100826.25;6216509;23;19927;-76
2023/11/25 01:22:17;;;;;;;;;;;;;;;-0.37;100.00;100825.81;6214764;23;19916;-77
2023/11/25 01:24:42;;;;;;;;;;;;;;;-0.37;100.00;100825.81;6215642;23;19919;-77
2023/11/25 01:27:08;;;;;;;;;;;;;;;-0.30;100.00;100826.97;6217790;23;19932;-76
2023/11/25 01:29:33;;;;;;;;;;;;;;;-0.30;100.00;100824.34;6217200;23;20209;-77
2023/11/25 01:31:59;;;;;;;;;;;;;;;-0.37;100.00;100820.53;6219763;23;19983;-77
2023/11/25 01:34:24;;;;;;;;;;;;;;;-0.40;100.00;100811.03;6223105;23;19916;-76
2023/11/25 01:36:50;;;;;;;;;;;;;;;-0.41;100.00;100819.09;6218052;23;19990;-77
2023/11/25 01:39:15;;;;;;;;;;;;;;;-0.49;100.00;100825.84;6218501;23;19912;-77
2023/11/25 01:41:40;;;;;;;;;;;;;;;-0.51;100.00;100824.28;6219284;23;19912;-77
2023/11/25 01:44:07;;;;;;;;;;;;;;;-0.50;100.00;100829.44;6218195;23;20209;-76
2023/11/25 01:46:38;;;;;;;;;;;;;;;-0.47;100.00;100831.84;6218915;23;19919;-76
2023/11/25 01:49:05;;;;;;;;;;;;;;;-0.43;100.00;100829.78;6217394;23;20249;-76
2023/11/25 01:51:30;;;;;;;;;;;;;;;-0.41;100.00;100819.91;6217576;23;20257;-76
2023/11/25 01:53:55;;;;;;;;;;;;;;;-0.36;100.00;100843.38;6219098;23;19927;-76
2023/11/25 01:56:20;;;;;;;;;;;;;;;-0.32;100.00;100829.75;6219800;23;20232;-76
2023/11/25 01:58:46;;;;;;;;;;;;;;;-0.34;100.00;100825.53;6219896;23;20300;-77
2023/11/25 02:01:11;;;;;;;;;;;;;;;-0.31;100.00;100838.53;6192193;23;19987;-77
2023/11/25 02:03:38;;;;;;;;;;;;;;;-0.32;100.00;100847.41;6189225;23;19922;-77
2023/11/25 02:06:06;;;;;;;;;;;;;;;-0.32;100.00;100844.78;6214355;23;20411;-77
2023/11/25 02:08:31;;;;;;;;;;;;;;;-0.27;100.00;100841.78;6188792;23;19920;-77
2023/11/25 02:10:56;;;;;;;;;;;;;;;-0.26;100.00;100841.63;6214832;23;20347;-77
2023/11/25 02:13:22;;;;;;;;;;;;;;;-0.22;100.00;100839.56;6217605;23;19908;-77
2023/11/25 02:15:47;;;;;;;;;;;;;;;-0.24;100.00;100839.72;6214270;23;19938;-77
2023/11/25 02:18:13;;;;;;;;;;;;;;;-0.20;100.00;100835.84;6214457;23;19959;-77
2023/11/25 02:20:41;;;;;;;;;;;;;;;-0.22;100.00;100840.44;6213182;23;19960;-77
2023/11/25 02:23:14;;;;;;;;;;;;;;;-0.29;100.00;100849.00;6214506;23;19969;-77
2023/11/25 02:25:40;;;;;;;;;;;;;;;-0.32;100.00;100850.91;6213786;23;19935;-77
2023/11/25 02:28:06;;;;;;;;;;;;;;;-0.31;100.00;100854.38;6187848;23;19912;-77
2023/11/25 02:30:31;;;;;;;;;;;;;;;-0.26;100.00;100844.28;6213959;23;20565;-77
2023/11/25 02:32:57;;;;;;;;;;;;;;;-0.09;100.00;100840.22;6222367;23;20330;-76
2023/11/25 02:35:22;;;;;;;;;;;;;;;-0.07;100.00;100848.88;6217485;23;19991;-78
2023/11/25 02:37:47;;;;;;;;;;;;;;;-0.12;100.00;100850.22;6214200;23;19923;-76
2023/11/25 02:40:16;;;;;;;;;;;;;;;-0.18;100.00;100849.75;6215124;23;19907;-77
2023/11/25 02:42:41;;;;;;;;;;;;;;;-0.14;100.00;100844.22;6215348;23;19943;-77
2023/11/25 02:45:07;;;;;;;;;;;;;;;-0.03;100.00;100846.84;6213914;23;20494;-77
2023/11/25 02:47:33;;;;;;;;;;;;;;;-0.08;100.00;100851.66;6214415;23;19986;-77
2023/11/25 02:49:58;;;;;;;;;;;;;;;-0.04;100.00;100851.28;6212488;23;19916;-77
2023/11/25 02:52:24;;;;;;;;;;;;;;;0.04;100.00;100850.63;6214071;23;19991;-77
2023/11/25 02:54:49;;;;;;;;;;;;;;;0.05;100.00;100854.97;6214022;23;19935;-77
2023/11/25 02:57:19;;;;;;;;;;;;;;;0.19;100.00;100845.88;6215324;23;20309;-77
2023/11/25 02:59:44;;;;;;;;;;;;;;;0.19;100.00;100845.00;6214381;23;20003;-77
2023/11/25 03:02:09;;;;;;;;;;;;;;;0.20;100.00;100844.03;6212780;23;19951;-77
2023/11/25 03:04:36;;;;;;;;;;;;;;;0.28;100.00;100847.72;6214623;23;19919;-77
2023/11/25 03:07:04;;;;;;;;;;;;;;;0.25;100.00;100844.50;6213333;23;19919;-77
2023/11/25 03:09:30;;;;;;;;;;;;;;;0.28;100.00;100829.19;6214143;23;19932;-77
2023/11/25 03:11:55;;;;;;;;;;;;;;;0.29;100.00;100827.41;6215838;23;20224;-77
2023/11/25 03:14:20;;;;;;;;;;;;;;;0.22;100.00;100821.78;6213493;23;19912;-77
2023/11/25 03:16:46;;;;;;;;;;;;;;;0.24;100.00;100827.78;6213890;23;19919;-76
2023/11/25 03:19:13;;;;;;;;;;;;;;;0.33;100.00;100828.81;6215274;23;19954;-77
2023/11/25 03:21:38;;;;;;;;;;;;;;;0.35;100.00;100829.53;6212245;23;19946;-77
2023/11/25 03:24:06;;;;;;;;;;;;;;;0.33;100.00;100828.81;6213949;23;19915;-77
2023/11/25 03:26:31;;;;;;;;;;;;;;;0.30;100.00;100823.78;6215862;23;19912;-77
2023/11/25 03:28:56;;;;;;;;;;;;;;;0.32;100.00;100816.56;6212945;23;20272;-77
2023/11/25 03:31:23;;;;;;;;;;;;;;;0.27;100.00;100824.03;6212995;23;19996;-77
2023/11/25 03:33:48;;;;;;;;;;;;;;;0.29;100.00;100822.09;6214987;23;19916;-77
2023/11/25 03:36:13;;;;;;;;;;;;;;;0.24;100.00;100817.22;6212052;23;20014;-77
2023/11/25 03:38:39;;;;;;;;;;;;;;;0.17;100.00;100813.38;6186867;23;19912;-77
2023/11/25 03:41:08;;;;;;;;;;;;;;;0.13;100.00;100807.53;6215968;23;19986;-77
2023/11/25 03:43:34;;;;;;;;;;;;;;;0.22;100.00;100816.50;6213337;23;19963;-77
2023/11/25 03:46:00;;;;;;;;;;;;;;;0.14;100.00;100811.84;6214385;23;19912;-76
2023/11/25 03:48:25;;;;;;;;;;;;;;;0.17;100.00;100808.09;6209059;23;19927;-77
2023/11/25 03:50:50;;;;;;;;;;;;;;;0.17;100.00;100802.81;6221301;23;19950;-77
2023/11/25 03:53:15;;;;;;;;;;;;;;;0.18;100.00;100803.66;6214524;23;19916;-77
2023/11/25 03:55:41;;;;;;;;;;;;;;;0.25;100.00;100808.28;6223489;23;19990;-77
2023/11/25 03:58:06;;;;;;;;;;;;;;;0.28;100.00;100804.53;6213808;23;19999;-77
2023/11/25 04:00:32;;;;;;;;;;;;;;;0.36;100.00;100802.06;6214620;23;20213;-76
2023/11/25 04:02:57;;;;;;;;;;;;;;;0.40;100.00;100787.59;6215033;23;19912;-76
2023/11/25 04:05:22;;;;;;;;;;;;;;;0.40;100.00;100805.31;6214886;23;19912;-76
2023/11/25 04:07:47;;;;;;;;;;;;;;;0.35;100.00;100816.28;6214004;23;19947;-75
2023/11/25 04:10:13;;;;;;;;;;;;;;;0.42;100.00;100804.19;6215992;23;19954;-75
2023/11/25 04:12:39;;;;;;;;;;;;;;;0.44;100.00;100799.59;6214718;23;19912;-75
2023/11/25 04:15:05;;;;;;;;;;;;;;;0.48;100.00;100802.00;6218997;23;19918;-76
2023/11/25 04:17:30;;;;;;;;;;;;;;;0.45;100.00;100808.38;6224213;23;19912;-76
2023/11/25 04:19:57;;;;;;;;;;;;;;;0.41;100.00;100814.94;6221519;23;20361;-76
2023/11/25 04:22:23;;;;;;;;;;;;;;;0.44;100.00;100819.97;6214769;23;19942;-76
2023/11/25 04:24:48;;;;;;;;;;;;;;;0.36;100.00;100812.66;6215031;23;20256;-76
2023/11/25 04:27:14;;;;;;;;;;;;;;;0.40;100.00;100810.59;6216830;23;19947;-76
2023/11/25 04:29:40;;;;;;;;;;;;;;;0.39;100.00;100819.50;6216946;23;19911;-76
2023/11/25 04:32:05;;;;;;;;;;;;;;;0.41;100.00;100820.22;6216061;23;19912;-76
2023/11/25 04:34:30;;;;;;;;;;;;;;;0.52;100.00;100828.06;6216783;23;20005;-76
2023/11/25 04:36:56;;;;;;;;;;;;;;;0.66;100.00;100837.50;6214350;23;20280;-76
2023/11/25 04:39:23;;;;;;;;;;;;;;;0.69;100.00;100836.38;6215577;23;20186;-76
2023/11/25 04:41:49;;;;;;;;;;;;;;;0.71;100.00;100832.63;6216314;23;19923;-75
2023/11/25 04:44:14;;;;;;;;;;;;;;;0.81;100.00;100830.00;6216790;23;19998;-76
2023/11/25 04:46:40;;;;;;;;;;;;;;;0.92;100.00;100823.78;6222844;23;19935;-76
2023/11/25 04:49:11;;;;;;;;;;;;;;;1.14;100.00;100827.19;6231894;23;19952;-76
2023/11/25 04:51:36;;;;;;;;;;;;;;;1.16;100.00;100825.25;6206293;23;19916;-76
2023/11/25 04:54:02;;;;;;;;;;;;;;;1.25;100.00;100819.09;6216609;23;20344;-76
2023/11/25 04:56:30;;;;;;;;;;;;;;;1.29;100.00;100817.88;6215894;23;20333;-76
2023/11/25 04:58:56;;;;;;;;;;;;;;;1.42;100.00;100825.56;6215778;23;19934;-77
2023/11/25 05:01:21;;;;;;;;;;;;;;;1.52;100.00;100826.41;6215123;23;20313;-76
2023/11/25 05:03:47;;;;;;;;;;;;;;;1.54;100.00;100825.44;6216224;23;20249;-76
2023/11/25 05:06:13;;;;;;;;;;;;;;;1.57;100.00;100825.16;6215580;23;20344;-76
2023/11/25 05:08:38;;;;;;;;;;;;;;;1.64;100.00;100813.84;6213970;23;19920;-76
2023/11/25 05:11:03;;;;;;;;;;;;;;;1.75;100.00;100806.75;6217328;23;19916;-76
2023/11/25 05:13:29;;;;;;;;;;;;;;;1.78;100.00;100815.25;6217313;23;19916;-76
2023/11/25 05:15:55;;;;;;;;;;;;;;;1.81;100.00;100819.44;6223609;23;20248;-77
2023/11/25 05:18:21;;;;;;;;;;;;;;;1.88;100.00;100820.56;6229669;23;19934;-76
2023/11/25 05:20:46;;;;;;;;;;;;;;;1.95;100.00;100832.25;6218985;23;20023;-77
2023/11/25 05:23:12;;;;;;;;;;;;;;;1.99;100.00;100848.78;6216091;23;19923;-76
2023/11/25 05:25:37;;;;;;;;;;;;;;;2.05;100.00;100864.13;6218390;23;19915;-77
2023/11/25 05:28:03;;;;;;;;;;;;;;;2.07;100.00;100864.00;6215397;23;19930;-77
2023/11/25 05:30:28;;;;;;;;;;;;;;;2.05;100.00;100868.59;6216035;23;19920;-77
2023/11/25 05:32:53;;;;;;;;;;;;;;;2.01;100.00;100880.47;6214674;23;20042;-77
2023/11/25 05:35:18;;;;;;;;;;;;;;;1.95;100.00;100852.69;6215288;23;19912;-77
2023/11/25 05:37:44;;;;;;;;;;;;;;;1.85;100.00;100814.69;6215863;23;19918;-77
2023/11/25 05:40:11;;;;;;;;;;;;;;;1.74;100.00;100797.09;6219573;23;19947;-77
2023/11/25 05:42:38;;;;;;;;;;;;;;;1.66;100.00;100773.91;6218253;23;19931;-77
2023/11/25 05:45:08;;;;;;;;;;;;;;;1.59;100.00;100778.91;6221408;23;19946;-77
2023/11/25 05:47:39;;;;;;;;;;;;;;;1.55;100.00;100777.56;6215122;22;20264;-77
2023/11/25 05:50:22;;;;;;;;;;;;;;;1.54;100.00;100778.53;6214735;23;20364;-76
2023/11/25 05:52:47;;;;;;;;;;;;;;;1.55;100.00;100782.00;6215087;23;19990;-77
2023/11/25 05:55:14;;;;;;;;;;;;;;;1.51;100.00;100784.09;6217277;23;20309;-77
2023/11/25 05:57:40;;;;;;;;;;;;;;;1.42;100.00;100777.81;6215724;23;19935;-78
2023/11/25 06:00:06;;;;;;;;;;;;;;;1.30;100.00;100794.84;6216071;23;20311;-78
2023/11/25 06:02:31;;;;;;;;;;;;;;;1.15;100.00;100803.19;6215400;23;20387;-78
2023/11/25 06:04:56;;;;;;;;;;;;;;;1.04;100.00;100803.31;6213951;23;19912;-79
2023/11/25 06:07:22;;;;;;;;;;;;;;;0.94;100.00;100791.84;6214915;23;20317;-78
2023/11/25 06:09:47;;;;;;;;;;;;;;;0.80;100.00;100785.94;6215036;23;20401;-80
2023/11/25 06:12:13;;;;;;;;;;;;;;;0.68;100.00;100794.94;6215071;23;19912;-80
2023/11/25 06:14:38;;;;;;;;;;;;;;;0.64;100.00;100796.19;6214178;23;20288;-78
2023/11/25 06:17:04;;;;;;;;;;;;;;;0.56;100.00;100796.84;6214008;23;19912;-77
2023/11/25 06:19:31;;;;;;;;;;;;;;;0.52;100.00;100796.28;6187630;23;19975;-77
2023/11/25 06:21:58;;;;;;;;;;;;;;;0.54;100.00;100793.50;6214423;23;20218;-77
2023/11/25 06:24:26;;;;;;;;;;;;;;;0.58;100.00;100789.63;6214887;23;19916;-80
2023/11/25 06:26:53;;;;;;;;;;;;;;;0.51;100.00;100788.50;6214836;23;19915;-76
2023/11/25 06:29:18;;;;;;;;;;;;;;;0.50;100.00;100781.50;6214621;23;19912;-79
2023/11/25 06:31:46;;;;;;;;;;;;;;;0.51;100.00;100778.72;6215315;23;19935;-79
2023/11/25 06:34:11;;;;;;;;;;;;;;;0.50;100.00;100771.75;6214512;23;19912;-79
2023/11/25 06:36:36;;;;;;;;;;;;;;;0.48;100.00;100762.25;6215709;23;19946;-79
2023/11/25 06:39:02;;;;;;;;;;;;;;;0.49;100.00;100759.47;6226788;23;19920;-77
2023/11/25 06:41:27;;;;;;;;;;;;;;;0.54;100.00;100756.41;6222626;23;19919;-77
2023/11/25 06:44:08;;;;;;;;;;;;;;;0.66;100.00;100747.41;6207693;23;19931;-78
2023/11/25 06:46:42;;;;;;;;;;;;;;;0.70;100.00;100747.97;6213945;23;20412;-77
2023/11/25 06:49:08;;;;;;;;;;;;;;;0.82;100.00;100743.41;6215731;23;19930;-77
2023/11/25 06:51:42;;;;;;;;;;;;;;;0.86;100.00;100747.47;6214148;23;20320;-80
2023/11/25 06:54:11;;;;;;;;;;;;;;;0.83;100.00;100755.69;6215207;23;19959;-79
2023/11/25 06:56:36;;;;;;;;;;;;;;;0.91;100.00;100755.81;6215659;23;19912;-75
2023/11/25 06:59:01;;;;;;;;;;;;;;;0.98;100.00;100754.31;6214223;23;19923;-76
2023/11/25 07:01:27;;;;;;;;;;;;;;;1.04;100.00;100747.63;6213214;23;19915;-75
2023/11/25 07:03:52;;;;;;;;;;;;;;;1.10;100.00;100756.84;6214985;23;19912;-79
2023/11/25 07:06:17;;;;;;;;;;;;;;;1.15;100.00;100760.75;6213963;23;19912;-79
2023/11/25 07:08:47;;;;;;;;;;;;;;;1.21;100.00;100759.38;6214274;23;20375;-79
2023/11/25 07:11:13;;;;;;;;;;;;;;;1.31;100.00;100748.78;6215432;23;19912;-79
2023/11/25 07:13:44;;;;;;;;;;;;;;;1.33;100.00;100758.28;6213865;23;19915;-76
2023/11/25 07:16:12;;;;;;;;;;;;;;;1.42;100.00;100761.06;6214742;23;19959;-76
2023/11/25 07:18:42;;;;;;;;;;;;;;;1.47;100.00;100769.44;6215178;23;19912;-76
2023/11/25 07:21:10;;;;;;;;;;;;;;;1.49;100.00;100760.38;6213215;23;19916;-77
2023/11/25 07:23:35;;;;;;;;;;;;;;;1.49;100.00;100762.19;6215341;23;19916;-77
2023/11/25 07:26:01;;;;;;;;;;;;;;;1.48;100.00;100760.50;6213999;23;19912;-78
2023/11/25 07:28:26;;;;;;;;;;;;;;;1.47;100.00;100764.13;6213551;23;19926;-77
2023/11/25 07:30:51;;;;;;;;;;;;;;;1.47;100.00;100767.63;6214122;23;19948;-77
2023/11/25 07:33:18;;;;;;;;;;;;;;;1.47;100.00;100772.09;6213292;23;19919;-76
2023/11/25 07:35:43;;;;;;;;;;;;;;;1.45;100.00;100768.72;6217028;23;19915;-76
2023/11/25 07:40:44;;;;;;;;;;;;;;;1.44;100.00;100761.75;6211748;23;19920;-77
2023/11/25 07:43:15;;;;;;;;;;;;;;;1.47;100.00;100766.78;6212937;23;19912;-78
2023/11/25 07:45:40;;;;;;;;;;;;;;;1.47;100.00;100772.09;6215614;23;19926;-77
2023/11/25 07:48:05;;;;;;;;;;;;;;;1.51;100.00;100773.50;6215742;23;19992;-78
2023/11/25 07:50:30;;;;;;;;;;;;;;;1.52;100.00;100762.72;6214743;23;20671;-78
2023/11/25 07:52:56;;;;;;;;;;;;;;;1.57;100.00;100772.09;6215001;23;19994;-77
2023/11/25 07:55:21;;;;;;;;;;;;;;;1.55;100.00;100766.94;6215165;23;19922;-78
2023/11/25 07:57:47;;;;;;;;;;;;;;;1.54;100.00;100759.94;6214791;23;20260;-78
2023/11/25 08:00:25;;;;;;;;;;;;;;;1.60;100.00;100766.50;6217938;23;19995;-78
2023/11/25 08:02:55;;;;;;;;;;;;;;;1.66;100.00;100772.09;6229955;23;19940;-78
2023/11/25 08:05:23;;;;;;;;;;;;;;;1.72;100.00;100767.22;6219031;23;20272;-78
2023/11/25 08:07:49;;;;;;;;;;;;;;;1.79;100.00;100757.69;6224670;23;19908;-77
2023/11/25 08:10:15;;;;;;;;;;;;;;;1.87;100.00;100760.47;6222634;23;20381;-78
2023/11/25 08:15:22;;;;;;;;;;;;;;;2.12;100.00;100763.47;6203647;23;19945;-77
2023/11/25 08:17:48;;;;;;;;;;;;;;;2.24;100.00;100757.03;6215934;23;20344;-77
2023/11/25 08:20:22;;;;;;;;;;;;;;;2.36;100.00;100762.16;6214744;23;19916;-77
2023/11/25 08:23:00;;;;;;;;;;;;;;;2.37;100.00;100755.88;6216929;23;19966;-78
2023/11/25 08:25:25;;;;;;;;;;;;;;;2.40;100.00;100755.59;6217196;23;19947;-77
2023/11/25 08:27:51;;;;;;;;;;;;;;;2.38;100.00;100763.69;6215810;23;19924;-77
2023/11/25 08:30:41;;;;;;;;;;;;;;;2.37;100.00;100762.03;6216642;23;20332;-77
2023/11/25 08:33:06;;;;;;;;;;;;;;;2.37;100.00;100762.03;6222818;23;19912;-77
2023/11/25 08:38:51;;;;;;;;;;;;;;;2.43;100.00;100760.59;6229090;23;19918;-77
2023/11/25 08:41:16;;;;;;;;;;;;;;;2.45;100.00;100758.66;6217514;23;19919;-78
2023/11/25 08:43:43;;;;;;;;;;;;;;;2.51;100.00;100758.03;6215715;23;19920;-78
2023/11/25 08:46:12;;;;;;;;;;;;;;;2.58;100.00;100756.47;6216128;23;20217;-78
2023/11/25 08:48:37;;;;;;;;;;;;;;;2.60;100.00;100760.81;6216580;23;20321;-78
2023/11/25 08:51:05;;;;;;;;;;;;;;;2.61;100.00;100763.31;6216827;23;19947;-78
2023/11/25 08:53:30;;;;;;;;;;;;;;;2.69;100.00;100746.63;6216980;23;19919;-78
2023/11/25 08:55:59;;;;;;;;;;;;;;;2.72;100.00;100754.31;6217134;23;19920;-78
2023/11/25 08:58:25;;;;;;;;;;;;;;;2.79;100.00;100752.75;6215186;23;19962;-78
2023/11/25 09:00:51;;;;;;;;;;;;;;;2.86;100.00;100745.84;6217554;23;20336;-78
2023/11/25 09:03:17;;;;;;;;;;;;;;;2.92;100.00;100748.91;6221055;23;19912;-78
2023/11/25 09:05:45;;;;;;;;;;;;;;;3.04;100.00;100758.31;6221694;23;19923;-78
2023/11/25 09:08:10;;;;;;;;;;;;;;;3.13;100.00;100754.78;6222374;23;19948;-78
2023/11/25 09:10:35;;;;;;;;;;;;;;;3.26;100.00;100759.75;6218063;23;19915;-79
2023/11/25 09:13:02;;;;;;;;;;;;;;;3.29;100.00;100750.59;6217037;23;19916;-78
2023/11/25 09:15:27;;;;;;;;;;;;;;;3.31;100.00;100743.31;6218824;23;19916;-78
2023/11/25 09:17:52;;;;;;;;;;;;;;;3.40;100.00;100737.06;6218017;23;20325;-78
2023/11/25 09:20:18;;;;;;;;;;;;;;;3.56;100.00;100736.38;6189025;23;19915;-78
2023/11/25 09:22:43;;;;;;;;;;;;;;;3.71;100.00;100733.16;6221763;23;19916;-78
2023/11/25 09:25:10;;;;;;;;;;;;;;;3.88;100.00;100747.44;6219944;23;19916;-78
2023/11/25 09:27:35;;;;;;;;;;;;;;;3.94;100.00;100745.00;6222821;23;19912;-78
2023/11/25 09:30:00;;;;;;;;;;;;;;;3.93;100.00;100742.47;6219365;23;20344;-78
2023/11/25 09:32:27;;;;;;;;;;;;;;;3.96;100.00;100752.81;6222913;23;19919;-78
2023/11/25 09:34:53;;;;;;;;;;;;;;;4.05;100.00;100764.34;6217811;23;20367;-78
2023/11/25 09:37:22;;;;;;;;;;;;;;;4.09;100.00;100757.72;6230337;23;19912;-79
2023/11/25 09:39:47;;;;;;;;;;;;;;;4.15;100.00;100772.25;6217354;23;20136;-78
2023/11/25 09:42:12;;;;;;;;;;;;;;;4.15;100.00;100780.25;6214302;23;19915;-78
2023/11/25 09:44:38;;;;;;;;;;;;;;;4.14;100.00;100779.41;6215673;23;19934;-78
2023/11/25 09:47:03;;;;;;;;;;;;;;;4.05;100.00;100783.84;6189559;23;19948;-78
2023/11/25 09:49:43;;;;;;;;;;;;;;;4.00;100.00;100772.81;6213961;23;19928;-78
2023/11/25 09:52:11;;;;;;;;;;;;;;;4.01;100.00;100774.50;6214052;23;19912;-78
2023/11/25 09:54:44;;;;;;;;;;;;;;;4.22;100.00;100783.97;6189570;23;19916;-78
2023/11/25 09:57:17;;;;;;;;;;;;;;;4.32;100.00;100776.69;6188724;23;19919;-78
2023/11/25 09:59:43;;;;;;;;;;;;;;;4.38;100.00;100772.53;6215237;23;19919;-78
2023/11/25 10:02:16;;;;;;;;;;;;;;;4.38;100.00;100773.41;6215189;23;19911;-78
2023/11/25 10:04:41;;;;;;;;;;;;;;;4.46;100.00;100769.94;6188509;23;19916;-78
2023/11/25 10:07:06;;;;;;;;;;;;;;;4.35;100.00;100763.06;6215827;23;19919;-78
2023/11/25 10:09:41;;;;;;;;;;;;;;;4.29;100.00;100746.84;6214341;23;19939;-80
2023/11/25 10:12:07;;;;;;;;;;;;;;;4.18;100.00;100747.97;6215669;23;19935;-79
2023/11/25 10:14:33;;;;;;;;;;;;;;;4.10;100.00;100760.22;6215719;23;19919;-78
2023/11/25 10:16:59;;;;;;;;;;;;;;;4.11;100.00;100755.75;6214870;23;19912;-78
2023/11/25 10:19:26;;;;;;;;;;;;;;;4.23;100.00;100759.00;6188411;23;20301;-77
2023/11/25 10:21:51;;;;;;;;;;;;;;;4.37;100.00;100750.41;6215891;23;19912;-77
2023/11/25 10:24:17;;;;;;;;;;;;;;;4.57;100.00;100749.31;6215343;23;20237;-77
2023/11/25 10:26:43;;;;;;;;;;;;;;;4.93;100.00;100744.63;6214841;23;19935;-77
2023/11/25 10:29:09;;;;;;;;;;;;;;;5.20;100.00;100740.00;6216343;23;19919;-77
2023/11/25 10:31:35;;;;;;;;;;;;;;;4.97;100.00;100729.13;6214561;23;19912;-77
2023/11/25 10:34:00;;;;;;;;;;;;;;;4.94;100.00;100732.09;6212556;23;20379;-78
2023/11/25 10:36:26;;;;;;;;;;;;;;;4.93;100.00;100731.28;6210702;23;19915;-78
2023/11/25 10:38:53;;;;;;;;;;;;;;;4.99;100.00;100733.28;6211759;23;19978;-78
2023/11/25 10:41:18;;;;;;;;;;;;;;;5.11;100.00;100739.16;6210725;23;19991;-77
2023/11/25 10:43:44;;;;;;;;;;;;;;;5.18;100.00;100736.66;6214154;23;19951;-78
2023/11/25 10:46:10;;;;;;;;;;;;;;;5.35;100.00;100742.00;6229217;23;19931;-78
2023/11/25 10:48:37;;;;;;;;;;;;;;;5.40;100.00;100729.84;6212072;23;19916;-78
2023/11/25 10:51:03;;;;;;;;;;;;;;;5.44;100.00;100731.19;6210749;23;20347;-77
2023/11/25 10:53:29;;;;;;;;;;;;;;;5.51;100.00;100736.69;6213835;23;19919;-78
2023/11/25 10:55:56;;;;;;;;;;;;;;;5.46;100.00;100731.03;6212688;23;20029;-78
2023/11/25 10:58:21;;;;;;;;;;;;;;;5.49;100.00;100722.66;6211372;23;19916;-77
2023/11/25 11:00:47;;;;;;;;;;;;;;;5.56;100.00;100730.88;6213513;23;19918;-77
2023/11/25 11:03:12;;;;;;;;;;;;;;;5.71;100.00;100731.00;6185594;23;19923;-77
2023/11/25 11:05:43;;;;;;;;;;;;;;;6.00;100.00;100732.38;6184088;23;19916;-77
2023/11/25 11:08:15;;;;;;;;;;;;;;;6.14;100.00;100731.66;6213167;23;19919;-77
2023/11/25 11:10:47;;;;;;;;;;;;;;;5.96;100.00;100723.81;6212455;23;19939;-77
2023/11/25 11:13:12;;;;;;;;;;;;;;;5.79;100.00;100723.00;6212353;23;20063;-76
2023/11/25 11:15:37;;;;;;;;;;;;;;;5.83;100.00;100723.50;6213679;23;19927;-77
2023/11/25 11:18:21;;;;;;;;;;;;;;;5.82;100.00;100712.00;6212076;23;19922;-77
2023/11/25 11:20:48;;;;;;;;;;;;;;;6.03;100.00;100723.97;6210056;23;19919;-77
2023/11/25 11:23:16;;;;;;;;;;;;;;;6.10;100.00;100737.50;6186579;23;19912;-78
2023/11/25 11:25:41;;;;;;;;;;;;;;;6.14;100.00;100731.66;6186084;23;19912;-78
2023/11/25 11:28:16;;;;;;;;;;;;;;;5.83;100.00;100726.16;6212341;23;19926;-78
2023/11/25 11:30:48;;;;;;;;;;;;;;;5.62;100.00;100722.16;6213269;23;20233;-78
2023/11/25 11:33:14;;;;;;;;;;;;;;;5.54;100.00;100715.00;6212551;23;20114;-78
2023/11/25 11:35:39;;;;;;;;;;;;;;;5.60;100.00;100719.69;6211429;23;19917;-78
2023/11/25 11:38:21;;;;;;;;;;;;;;;5.63;100.00;100717.69;6212073;23;19912;-78
2023/11/25 11:40:47;;;;;;;;;;;;;;;5.64;100.00;100720.16;6202567;23;20202;-78
2023/11/25 11:43:18;;;;;;;;;;;;;;;5.66;100.00;100715.50;6211434;23;20321;-78
2023/11/25 11:45:43;;;;;;;;;;;;;;;5.64;100.00;100714.00;6213263;23;19908;-78
2023/11/25 11:48:09;;;;;;;;;;;;;;;5.63;100.00;100717.69;6185793;23;20481;-77
2023/11/25 11:50:43;;;;;;;;;;;;;;;5.68;100.00;100718.00;6188660;23;19939;-77
2023/11/25 11:53:14;;;;;;;;;;;;;;;5.64;100.00;100719.34;6217238;23;19916;-77
2023/11/25 11:55:52;;;;;;;;;;;;;;;5.57;100.00;100720.00;6221686;23;19912;-77
2023/11/25 11:58:18;;;;;;;;;;;;;;;5.66;100.00;100728.00;6222963;23;19916;-77
2023/11/25 12:00:46;;;;;;;;;;;;;;;5.54;100.00;100736.34;6231785;23;19916;-78
2023/11/25 12:03:12;;;;;;;;;;;;;;;5.42;100.00;100727.03;6230395;23;19912;-77
2023/11/25 12:05:41;;;;;;;;;;;;;;;5.34;100.00;100724.34;6226740;23;20271;-79
2023/11/25 12:08:06;;;;;;;;;;;;;;;5.38;100.00;100729.19;6226256;23;20019;-78
2023/11/25 12:10:32;;;;;;;;;;;;;;;5.37;100.00;100724.00;6215818;23;19912;-78
2023/11/25 12:12:57;;;;;;;;;;;;;;;5.48;100.00;100726.34;6214955;23;19912;-78
2023/11/25 12:17:48;;;;;;;;;;;;;;;5.67;100.00;100719.00;6212438;23;19998;-78
2023/11/25 12:20:27;;;;;;;;;;;;;;;5.74;100.00;100718.16;6214312;23;20010;-77
2023/11/25 12:23:05;;;;;;;;;;;;;;;5.75;100.00;100724.34;6215817;23;19912;-76
2023/11/25 12:29:07;;;;;;;;;;;;;;;6.89;100.00;100715.28;6231697;23;19927;-77
2023/11/25 12:31:32;;;;;;;;;;;;;;;6.86;100.00;100713.00;6152497;23;19912;-77
2023/11/25 12:34:01;;;;;;;;;;;;;;;6.79;100.00;100719.03;6214379;23;19939;-77
2023/11/25 12:36:41;;;;;;;;;;;;;;;6.47;100.00;100712.84;6204137;23;19946;-76
2023/11/25 12:39:16;;;;;;;;;;;;;;;6.19;100.00;100713.25;6188458;23;20325;-77
2023/11/25 12:41:44;;;;;;;;;;;;;;;6.03;100.00;100708.81;6215278;23;19912;-79
2023/11/25 12:44:10;;;;;;;;;;;;;;;5.74;100.00;100717.31;6214137;23;19931;-77
2023/11/25 12:46:38;;;;;;;;;;;;;;;5.79;100.00;100698.97;6216790;23;20474;-77
2023/11/25 12:49:24;;;;;;;;;;;;;;;5.74;100.00;100701.31;6216870;23;20202;-78